createdAt,value
2022-11-29T00:04:54.136Z,67.35
2022-11-29T00:14:57.694Z,67.43
2022-11-29T00:25:01.300Z,67.73
2022-11-29T00:35:09.417Z,67.33
2022-11-29T00:45:13.500Z,67.14
2022-11-29T00:55:17.182Z,66.97
2022-11-29T01:05:20.863Z,67.29
2022-11-29T01:15:24.457Z,66.96
2022-11-29T01:25:28.235Z,66.82
2022-11-29T01:35:31.867Z,66.66
2022-11-29T01:45:38.450Z,66.96
2022-11-29T01:55:47.329Z,67.18
2022-11-29T02:05:53.303Z,67.03
2022-11-29T02:15:56.910Z,67.06
2022-11-29T02:26:20.215Z,67.16
2022-11-29T02:36:42.999Z,67.12
2022-11-29T02:47:24.813Z,67.11
2022-11-29T02:57:40.637Z,67.29
2022-11-29T03:08:06.142Z,67.06
2022-11-29T03:18:31.468Z,67.26
2022-11-29T03:29:07.323Z,67.10
2022-11-29T03:39:19.360Z,66.92
2022-11-29T03:49:38.088Z,67.13
2022-11-29T04:00:07.796Z,67.45
2022-11-29T04:10:44.649Z,67.15
2022-11-29T04:20:55.711Z,67.28
2022-11-29T04:31:17.808Z,67.65
2022-11-29T04:41:46.655Z,67.54
2022-11-29T04:52:08.831Z,67.36
2022-11-29T05:02:35.438Z,67.76
2022-11-29T05:12:56.076Z,67.76
2022-11-29T05:23:21.926Z,67.49
2022-11-29T05:33:54.103Z,67.37
2022-11-29T05:44:24.360Z,67.86
2022-11-29T05:54:42.243Z,67.84
2022-11-29T06:05:08.109Z,67.52
2022-11-29T06:16:09.366Z,67.50
2022-11-29T06:26:30.181Z,67.61
2022-11-29T06:36:58.870Z,66.98
2022-11-29T06:47:08.420Z,66.96
2022-11-29T06:57:40.481Z,67.44
2022-11-29T07:07:44.467Z,67.30
2022-11-29T07:18:29.942Z,66.86
2022-11-29T07:28:36.611Z,66.23
2022-11-29T07:39:09.384Z,65.85
2022-11-29T07:49:13.038Z,66.58
2022-11-29T07:59:16.695Z,66.48
2022-11-29T08:09:20.421Z,66.13
2022-11-29T08:19:24.063Z,65.68
2022-11-29T08:29:27.820Z,65.51
2022-11-29T08:39:31.457Z,65.53
2022-11-29T08:49:35.035Z,65.25
2022-11-29T08:59:38.594Z,64.64
2022-11-29T09:09:42.420Z,64.39
2022-11-29T09:19:46.021Z,64.12
2022-11-29T09:29:49.616Z,63.94
2022-11-29T09:39:53.398Z,63.99
2022-11-29T09:49:59.936Z,64.11
2022-11-29T10:00:07.582Z,64.14
2022-11-29T10:10:37.867Z,63.74
2022-11-29T10:20:48.765Z,63.75
2022-11-29T10:30:59.140Z,63.62
2022-11-29T10:41:13.915Z,63.71
2022-11-29T10:51:18.303Z,63.77
2022-11-29T11:01:22.379Z,63.65
2022-11-29T11:11:32.152Z,63.53
2022-11-29T11:21:38.812Z,63.30
2022-11-29T11:31:42.424Z,63.29
2022-11-29T11:42:05.780Z,63.23
2022-11-29T11:52:20.331Z,63.33
2022-11-29T12:02:27.021Z,63.44
2022-11-29T12:12:37.362Z,63.81
2022-11-29T12:23:06.167Z,63.65
2022-11-29T12:33:18.762Z,63.50
2022-11-29T12:43:46.734Z,63.61
2022-11-29T12:53:53.545Z,63.67
2022-11-29T13:04:07.911Z,63.77
2022-11-29T13:14:46.398Z,64.04
2022-11-29T13:24:54.586Z,64.03
2022-11-29T13:35:08.432Z,64.01
2022-11-29T13:45:46.545Z,63.91
2022-11-29T13:56:03.069Z,64.15
2022-11-29T14:06:32.529Z,64.31
2022-11-29T14:16:42.146Z,64.93
2022-11-29T14:26:45.879Z,64.69
2022-11-29T14:37:08.817Z,64.69
2022-11-29T14:47:27.026Z,64.79
2022-11-29T14:58:02.369Z,65.01
2022-11-29T15:08:15.276Z,65.38
2022-11-29T15:18:34.984Z,65.10
2022-11-29T15:28:38.641Z,65.36
2022-11-29T15:38:46.746Z,65.37
2022-11-29T15:48:50.474Z,65.71
2022-11-29T15:58:59.992Z,65.58
2022-11-29T16:09:04.647Z,65.38
2022-11-29T16:19:28.513Z,65.40
2022-11-29T16:29:38.602Z,65.34
2022-11-29T16:39:47.119Z,65.51
2022-11-29T16:50:18.728Z,65.13
2022-11-29T17:00:29.222Z,64.95
2022-11-29T17:10:33.090Z,64.90
2022-11-29T17:20:36.917Z,64.92
2022-11-29T17:30:40.620Z,65.27
2022-11-29T17:40:44.275Z,65.01
2022-11-29T17:50:47.997Z,65.12
2022-11-29T18:00:51.686Z,64.84
2022-11-29T18:11:13.697Z,65.09
2022-11-29T18:21:17.323Z,65.50
2022-11-29T18:31:22.650Z,65.39
2022-11-29T18:41:28.465Z,65.61
2022-11-29T18:51:33.164Z,65.40
2022-11-29T19:01:41.392Z,66.14
2022-11-29T19:11:45.301Z,65.70
2022-11-29T19:21:49.287Z,65.80
2022-11-29T19:31:53.727Z,65.92
2022-11-29T19:41:57.828Z,66.22
2022-11-29T19:52:01.437Z,66.67
2022-11-29T20:02:05.201Z,67.07
2022-11-29T20:12:08.951Z,66.88
2022-11-29T20:22:12.541Z,66.31
2022-11-29T20:32:17.131Z,65.92
2022-11-29T20:42:39.076Z,65.27
2022-11-29T20:52:57.640Z,64.48
2022-11-29T21:03:01.227Z,64.08
2022-11-29T21:13:05.131Z,63.49
2022-11-29T21:23:27.327Z,63.09
2022-11-29T21:33:31.343Z,62.72
2022-11-29T21:44:04.796Z,62.47
2022-11-29T21:53:58.610Z,62.44
2022-11-29T22:04:02.317Z,62.30
2022-11-29T22:14:15.334Z,62.11
2022-11-29T22:24:21.286Z,62.05
2022-11-29T22:34:26.958Z,62.11
2022-11-29T22:44:31.512Z,61.97
2022-11-29T22:54:35.353Z,61.70
2022-11-29T23:04:38.934Z,61.96
2022-11-29T23:14:42.565Z,61.96
2022-11-29T23:24:46.372Z,61.98
2022-11-29T23:34:50.086Z,61.95
2022-11-29T23:44:53.733Z,62.08
2022-11-29T23:54:57.292Z,62.07
